Whitecourt Airport
CYZU : now visible

Airfield :











YOU CAN JOIN US ON...

 
LOGIN :

Register | Disclaimer

   EN    FR    IT 

 









Legend :    VFR   Marginal VFR   IFR   Intensive IFR   Very Intensive IFR
Visi :
Ceiling :
>= 8 km
>= 3000ft
5 to 8 km
1000 to 3000 ft
1500m to 5 km
500 to 1000 ft
800 to 1500m
200 to 500 ft
< 800m
< 200 ft
Symbols :   Thunderstorms  Fog  Heavy snow  Heavy precipitations  Wind > 20 kt







- Airport Elevation : 2567 ft
- IATA code : YZU


CYZU - Whitecourt

CURRENT METAR :
  • 221900Z 13015G22KT 120V200 15SM FEW064 OVC120 17/02 A3007 RMK CU1AC8 CU TR SLP196 DENSITY ALT 3300FT

EXPIRED METARs :
  • 221800Z 12011KT 15SM OVC110 16/03 A3008 RMK AC8 SLP197 DENSITY ALT 3200FT
  • 221700Z 10005KT 15SM BKN120 OVC190 13/04 A3009 RMK AC7AC1 SLP201 DENSITY ALT 2800FT

TAF TAF CYZU
Valid from the 22 at 19:00 until the 22 at 23:00 UTC


221838Z 2219/2223 12010KT P6SM BKN100 RMK NXT FCST WILL BE ISSUED AT 231415Z
CZEG FIR / North America



MET'MAP, your aeronautical weather chart ! - Copyright ORBIFLY December 2007 - Disclaimer

ORBIFLY MET'MAP TEAM :

Programming & Development : Alexandra Zaïnal
Concept & Development : Baudouin d'Aumeries
Co-Development & Prog : Marc-Olivier Méhu
Technical & hardware support : Manuel Goepfert

Contact : metmap@orbifly.com




SOURCES & CREDITS :

   NOAA       Earth
Advisory